createdAt,value
2015-10-28T00:00:09.481Z,4.97
2015-10-28T00:00:21.794Z,4.89
2015-10-28T00:00:34.091Z,4.93
2015-10-28T00:00:46.403Z,4.97
2015-10-28T00:00:58.700Z,4.94
2015-10-28T00:01:10.859Z,4.93
2015-10-28T00:01:23.172Z,4.97
2015-10-28T00:01:35.469Z,4.93
2015-10-28T00:01:47.781Z,4.93
2015-10-28T00:02:00.109Z,4.96
2015-10-28T00:02:12.425Z,4.99
2015-10-28T00:02:24.784Z,5.04
2015-10-28T00:02:37.081Z,4.97
2015-10-28T00:02:49.378Z,4.92
2015-10-28T00:03:01.691Z,4.96
2015-10-28T00:03:13.990Z,4.97
2015-10-28T00:03:26.287Z,4.96
2015-10-28T00:03:38.600Z,4.99
2015-10-28T00:03:50.912Z,4.94
2015-10-28T00:04:03.225Z,4.96
2015-10-28T00:04:15.556Z,4.97
2015-10-28T00:04:27.900Z,4.9
2015-10-28T00:04:40.197Z,4.97
2015-10-28T00:04:52.493Z,4.93
2015-10-28T00:05:04.790Z,4.94
2015-10-28T00:05:17.105Z,4.94
2015-10-28T00:05:29.402Z,5
2015-10-28T00:05:41.699Z,4.96
2015-10-28T00:05:53.957Z,4.9
2015-10-28T00:06:06.842Z,4.97
2015-10-28T00:06:19.249Z,4.94
2015-10-28T00:06:31.469Z,4.89
2015-10-28T00:06:44.220Z,4.97
2015-10-28T00:06:57.533Z,4.93
2015-10-28T00:07:09.661Z,4.97
2015-10-28T00:07:21.661Z,4.92
2015-10-28T00:07:33.833Z,4.97
2015-10-28T00:07:46.020Z,4.96
2015-10-28T00:07:59.129Z,4.94
2015-10-28T00:08:14.256Z,4.96
2015-10-28T00:08:34.147Z,4.93
2015-10-28T00:08:46.632Z,4.92
2015-10-28T00:08:59.070Z,4.94
2015-10-28T00:09:11.667Z,4.94
2015-10-28T00:09:24.635Z,5
2015-10-28T00:09:37.151Z,5.05
2015-10-28T00:09:50.448Z,4.94
2015-10-28T00:10:03.088Z,4.94
2015-10-28T00:10:15.466Z,4.96
2015-10-28T00:10:27.826Z,4.97
2015-10-28T00:10:40.623Z,4.93
2015-10-28T00:10:52.966Z,5
2015-10-28T00:11:05.279Z,5.04
2015-10-28T00:11:17.625Z,4.94
2015-10-28T00:11:29.937Z,5.02
2015-10-28T00:11:42.234Z,4.97
2015-10-28T00:11:54.547Z,4.97
2015-10-28T00:12:06.846Z,4.94
2015-10-28T00:12:19.159Z,4.97
2015-10-28T00:12:31.487Z,4.93
2015-10-28T00:12:43.846Z,4.94
2015-10-28T00:12:56.159Z,4.94
2015-10-28T00:13:08.458Z,4.94
2015-10-28T00:13:20.755Z,4.99
2015-10-28T00:13:33.067Z,4.94
2015-10-28T00:13:45.364Z,4.96
2015-10-28T00:13:57.677Z,5
2015-10-28T00:14:10.008Z,4.93
2015-10-28T00:14:22.430Z,4.99
2015-10-28T00:14:34.773Z,4.9
2015-10-28T00:14:47.086Z,4.94
2015-10-28T00:14:59.414Z,4.93
2015-10-28T00:15:11.714Z,4.97
2015-10-28T00:15:24.011Z,4.9
2015-10-28T00:15:36.308Z,4.96
2015-10-28T00:15:48.604Z,5.02
2015-10-28T00:16:00.917Z,4.94
2015-10-28T00:16:13.232Z,4.97
2015-10-28T00:16:25.561Z,4.93
2015-10-28T00:16:37.998Z,4.93
2015-10-28T00:16:50.295Z,4.99
2015-10-28T00:17:02.592Z,4.94
2015-10-28T00:17:14.906Z,4.97
2015-10-28T00:17:27.203Z,4.87
2015-10-28T00:17:39.500Z,4.99
2015-10-28T00:17:51.813Z,4.94
2015-10-28T00:18:04.125Z,4.92
2015-10-28T00:18:16.456Z,4.86
2015-10-28T00:18:28.784Z,4.86
2015-10-28T00:18:41.097Z,4.92
2015-10-28T00:18:53.394Z,4.87
2015-10-28T00:19:05.691Z,4.89
2015-10-28T00:19:17.990Z,4.82
2015-10-28T00:19:30.303Z,4.93
2015-10-28T00:19:42.600Z,4.86
2015-10-28T00:19:54.912Z,4.94
2015-10-28T00:20:07.212Z,4.8
2015-10-28T00:20:19.556Z,4.94
2015-10-28T00:20:31.962Z,5.04
2015-10-28T00:20:44.259Z,4.86
2015-10-28T00:20:56.572Z,4.89
2015-10-28T00:21:08.870Z,4.96
2015-10-28T00:21:21.183Z,4.9
2015-10-28T00:21:33.495Z,4.92
2015-10-28T00:21:45.792Z,5
2015-10-28T00:21:58.120Z,4.92
2015-10-28T00:22:10.436Z,4.99
2015-10-28T00:22:22.764Z,4.92
2015-10-28T00:22:35.123Z,4.96
2015-10-28T00:22:47.436Z,4.97
2015-10-28T00:22:59.733Z,5
2015-10-28T00:23:12.017Z,4.96
2015-10-28T00:23:24.314Z,4.97
2015-10-28T00:23:36.626Z,4.86
2015-10-28T00:23:48.939Z,4.87
2015-10-28T00:24:01.236Z,4.9
2015-10-28T00:24:13.551Z,4.97
2015-10-28T00:24:25.879Z,4.92
2015-10-28T00:24:38.192Z,4.86
2015-10-28T00:24:50.489Z,4.97
2015-10-28T00:25:02.786Z,4.87
2015-10-28T00:25:15.116Z,4.9
2015-10-28T00:25:27.413Z,4.99
2015-10-28T00:25:39.725Z,4.87
2015-10-28T00:25:52.053Z,4.86
2015-10-28T00:26:04.350Z,4.86
2015-10-28T00:26:16.666Z,4.94
2015-10-28T00:26:28.963Z,4.84
2015-10-28T00:26:41.259Z,4.9
2015-10-28T00:26:53.572Z,4.84
2015-10-28T00:27:05.869Z,4.82
2015-10-28T00:27:18.184Z,4.74
2015-10-28T00:27:30.512Z,4.75
2015-10-28T00:27:42.872Z,4.73
2015-10-28T00:27:55.200Z,4.8
2015-10-28T00:28:07.561Z,4.8
2015-10-28T00:28:19.858Z,4.86
2015-10-28T00:28:32.155Z,4.86
2015-10-28T00:28:44.452Z,4.73
2015-10-28T00:28:56.749Z,4.7
2015-10-28T00:29:09.048Z,4.74
2015-10-28T00:29:21.360Z,4.7
2015-10-28T00:29:33.657Z,4.8
2015-10-28T00:29:45.985Z,4.78
2015-10-28T00:29:58.313Z,4.78
2015-10-28T00:30:10.644Z,4.7
2015-10-28T00:30:22.973Z,4.77
2015-10-28T00:30:35.254Z,4.7
2015-10-28T00:30:47.566Z,4.63
2015-10-28T00:30:59.848Z,4.74
2015-10-28T00:31:12.163Z,4.7
2015-10-28T00:31:24.460Z,4.73
2015-10-28T00:31:36.757Z,4.7
2015-10-28T00:31:49.069Z,4.78
2015-10-28T00:32:01.382Z,4.73
2015-10-28T00:32:13.729Z,4.73
2015-10-28T00:32:26.025Z,4.7
2015-10-28T00:32:38.322Z,4.77
2015-10-28T00:32:50.604Z,4.86
2015-10-28T00:33:02.760Z,4.86
2015-10-28T00:33:15.043Z,4.78
2015-10-28T00:33:27.356Z,4.84
2015-10-28T00:33:39.668Z,4.82
2015-10-28T00:33:51.981Z,4.8
2015-10-28T00:34:04.309Z,4.78
2015-10-28T00:34:16.640Z,4.8
2015-10-28T00:34:28.780Z,4.82
2015-10-28T00:34:41.062Z,4.77
2015-10-28T00:34:53.359Z,4.78
2015-10-28T00:35:05.655Z,4.82
2015-10-28T00:35:17.987Z,4.9
2015-10-28T00:35:30.299Z,4.78
2015-10-28T00:35:42.627Z,4.82
2015-10-28T00:35:54.924Z,4.96
2015-10-28T00:36:07.221Z,4.93
2015-10-28T00:36:19.505Z,4.93
2015-10-28T00:36:31.802Z,4.92
2015-10-28T00:36:44.099Z,4.92
2015-10-28T00:36:56.427Z,4.96
2015-10-28T00:37:08.742Z,4.92
2015-10-28T00:37:21.054Z,4.84
2015-10-28T00:37:33.382Z,4.78
2015-10-28T00:37:45.726Z,4.8
2015-10-28T00:37:58.023Z,4.8
2015-10-28T00:38:10.323Z,4.78
2015-10-28T00:38:22.620Z,4.86
2015-10-28T00:38:34.916Z,4.82
2015-10-28T00:38:47.213Z,4.74
2015-10-28T00:38:59.541Z,4.86
2015-10-28T00:39:11.856Z,4.84
2015-10-28T00:39:24.184Z,4.77
2015-10-28T00:39:36.528Z,4.73
2015-10-28T00:39:48.887Z,4.74
2015-10-28T00:40:01.184Z,4.73
2015-10-28T00:40:13.344Z,4.74
2015-10-28T00:40:25.641Z,4.63
2015-10-28T00:40:37.954Z,4.63
2015-10-28T00:40:50.251Z,4.62
2015-10-28T00:41:02.563Z,4.6
2015-10-28T00:41:14.878Z,4.63
2015-10-28T00:41:27.206Z,4.71
2015-10-28T00:41:39.534Z,4.62
2015-10-28T00:41:51.831Z,4.55
2015-10-28T00:42:04.128Z,4.71
2015-10-28T00:42:16.459Z,4.68
2015-10-28T00:42:28.756Z,4.67
2015-10-28T00:42:41.037Z,4.68
2015-10-28T00:42:53.365Z,4.66
2015-10-28T00:43:05.662Z,4.66
2015-10-28T00:43:17.837Z,4.7
2015-10-28T00:43:30.165Z,4.75
2015-10-28T00:43:42.462Z,4.74
2015-10-28T00:43:54.759Z,4.75
2015-10-28T00:44:07.055Z,4.77
2015-10-28T00:44:19.339Z,4.82
2015-10-28T00:44:31.651Z,4.86
2015-10-28T00:44:43.948Z,4.93
2015-10-28T00:44:56.261Z,4.97
2015-10-28T00:45:08.606Z,5.02
2015-10-28T00:45:20.888Z,4.94
2015-10-28T00:45:33.200Z,4.93
2015-10-28T00:45:45.497Z,4.93
2015-10-28T00:45:57.794Z,4.97
2015-10-28T00:46:10.094Z,4.93
2015-10-28T00:46:22.406Z,4.89
2015-10-28T00:46:34.734Z,4.8
2015-10-28T00:46:47.047Z,4.87
2015-10-28T00:46:59.375Z,4.86
2015-10-28T00:47:11.550Z,4.86
2015-10-28T00:47:23.862Z,4.78
2015-10-28T00:47:36.159Z,4.87
2015-10-28T00:47:48.456Z,4.93
2015-10-28T00:48:00.753Z,4.89
2015-10-28T00:48:13.053Z,4.86
2015-10-28T00:48:25.350Z,4.89
2015-10-28T00:48:37.662Z,4.92
2015-10-28T00:48:49.975Z,4.86
2015-10-28T00:49:02.287Z,4.8
2015-10-28T00:49:14.633Z,4.89
2015-10-28T00:49:26.961Z,4.9
2015-10-28T00:49:39.258Z,4.87
2015-10-28T00:49:51.539Z,4.8
2015-10-28T00:50:03.836Z,4.82
2015-10-28T00:50:16.152Z,4.82
2015-10-28T00:50:28.448Z,4.84
2015-10-28T00:50:40.745Z,4.86
2015-10-28T00:50:53.058Z,4.78
2015-10-28T00:51:05.386Z,4.84
2015-10-28T00:51:17.733Z,4.82
2015-10-28T00:51:30.030Z,4.78
2015-10-28T00:51:42.342Z,4.74
2015-10-28T00:51:54.655Z,4.68
2015-10-28T00:52:06.951Z,4.67
2015-10-28T00:52:19.250Z,4.7
2015-10-28T00:52:31.547Z,4.73
2015-10-28T00:52:43.860Z,4.75
2015-10-28T00:52:56.172Z,4.67
2015-10-28T00:53:08.489Z,4.68
2015-10-28T00:53:20.786Z,4.67
2015-10-28T00:53:33.098Z,4.73
2015-10-28T00:53:45.395Z,4.75
2015-10-28T00:53:57.676Z,4.68
2015-10-28T00:54:10.005Z,4.74
2015-10-28T00:54:22.302Z,4.62
2015-10-28T00:54:34.458Z,4.56
2015-10-28T00:54:46.771Z,4.56
2015-10-28T00:54:58.943Z,4.6
2015-10-28T00:55:11.258Z,4.59
2015-10-28T00:55:23.555Z,4.58
2015-10-28T00:55:35.852Z,4.53
2015-10-28T00:55:48.149Z,4.56
2015-10-28T00:56:00.446Z,4.58
2015-10-28T00:56:12.746Z,4.59
2015-10-28T00:56:25.058Z,4.67
2015-10-28T00:56:37.355Z,4.66
2015-10-28T00:56:49.668Z,4.63
2015-10-28T00:57:01.980Z,4.63
2015-10-28T00:57:14.296Z,4.63
2015-10-28T00:57:26.592Z,4.66
2015-10-28T00:57:38.889Z,4.67
2015-10-28T00:57:51.202Z,4.62
2015-10-28T00:58:03.499Z,4.66
2015-10-28T00:58:15.829Z,4.7
2015-10-28T00:58:28.141Z,4.73
2015-10-28T00:58:40.469Z,4.66
2015-10-28T00:58:52.798Z,4.71
2015-10-28T00:59:05.141Z,4.7
2015-10-28T00:59:17.441Z,4.73
2015-10-28T00:59:29.769Z,4.7
2015-10-28T00:59:42.066Z,4.59
2015-10-28T00:59:54.363Z,4.66
2015-10-28T01:00:06.660Z,4.6
2015-10-28T01:00:18.975Z,4.68
2015-10-28T01:00:31.288Z,4.66
2015-10-28T01:00:43.600Z,4.66
2015-10-28T01:00:55.929Z,4.68
2015-10-28T01:01:08.257Z,4.66
2015-10-28T01:01:20.400Z,4.66
2015-10-28T01:01:32.713Z,4.63
2015-10-28T01:01:45.010Z,4.55
2015-10-28T01:01:57.307Z,4.6
2015-10-28T01:02:09.606Z,4.67
2015-10-28T01:02:21.919Z,4.66
2015-10-28T01:02:34.231Z,4.56
2015-10-28T01:02:46.544Z,4.59
2015-10-28T01:02:58.856Z,4.58
2015-10-28T01:03:11.155Z,4.56
2015-10-28T01:03:23.452Z,4.6
2015-10-28T01:03:35.749Z,4.6
2015-10-28T01:03:48.062Z,4.58
2015-10-28T01:04:00.343Z,4.6
2015-10-28T01:04:12.658Z,4.56
2015-10-28T01:04:24.971Z,4.6
2015-10-28T01:04:37.299Z,4.67
2015-10-28T01:04:49.658Z,4.67
2015-10-28T01:05:01.986Z,4.66
2015-10-28T01:05:14.302Z,4.68
2015-10-28T01:05:26.599Z,4.7
2015-10-28T01:05:38.896Z,4.67
2015-10-28T01:05:51.193Z,4.68
2015-10-28T01:06:03.489Z,4.7
2015-10-28T01:06:15.804Z,4.66
2015-10-28T01:06:28.116Z,4.74
2015-10-28T01:06:40.445Z,4.75
2015-10-28T01:06:52.773Z,4.67
2015-10-28T01:07:05.054Z,4.63
2015-10-28T01:07:17.432Z,4.68
2015-10-28T01:07:29.729Z,4.63
2015-10-28T01:07:42.041Z,4.7
2015-10-28T01:07:54.338Z,4.66
2015-10-28T01:08:06.651Z,4.66
2015-10-28T01:08:18.951Z,4.62
2015-10-28T01:08:31.279Z,4.63
2015-10-28T01:08:43.607Z,4.58
2015-10-28T01:08:55.935Z,4.59
2015-10-28T01:09:08.232Z,4.66
2015-10-28T01:09:20.547Z,4.63
2015-10-28T01:09:32.844Z,4.67
2015-10-28T01:09:45.141Z,4.63
2015-10-28T01:09:57.438Z,4.66
2015-10-28T01:10:09.752Z,4.62
2015-10-28T01:10:22.049Z,4.59
2015-10-28T01:10:34.409Z,4.55
2015-10-28T01:10:46.752Z,4.56
2015-10-28T01:10:59.081Z,4.62
2015-10-28T01:11:11.379Z,4.58
2015-10-28T01:11:23.676Z,4.56
2015-10-28T01:11:35.973Z,4.55
2015-10-28T01:11:48.286Z,4.5
2015-10-28T01:12:00.598Z,4.45
2015-10-28T01:12:12.961Z,4.42
2015-10-28T01:12:25.304Z,4.41
2015-10-28T01:12:37.617Z,4.42
2015-10-28T01:12:49.914Z,4.42
2015-10-28T01:13:02.054Z,4.44
2015-10-28T01:13:14.354Z,4.42
2015-10-28T01:13:26.667Z,4.42
2015-10-28T01:13:38.979Z,4.4
2015-10-28T01:13:51.276Z,4.42
2015-10-28T01:14:03.604Z,4.37
2015-10-28T01:14:15.934Z,4.41
2015-10-28T01:14:28.278Z,4.42
2015-10-28T01:14:40.591Z,4.38
2015-10-28T01:14:52.887Z,4.42
2015-10-28T01:15:05.200Z,4.4
2015-10-28T01:15:17.500Z,4.42
2015-10-28T01:15:29.797Z,4.38
2015-10-28T01:15:42.094Z,4.35
2015-10-28T01:15:54.390Z,4.32
2015-10-28T01:16:06.703Z,4.34
2015-10-28T01:16:19.050Z,4.31
2015-10-28T01:16:31.378Z,4.31
2015-10-28T01:16:43.690Z,4.32
2015-10-28T01:16:56.050Z,4.34
2015-10-28T01:17:08.347Z,4.32
2015-10-28T01:17:20.646Z,4.41
2015-10-28T01:17:32.943Z,4.53
2015-10-28T01:17:45.256Z,4.48
2015-10-28T01:17:57.553Z,4.44
2015-10-28T01:18:09.867Z,4.49
2015-10-28T01:18:22.039Z,4.5
2015-10-28T01:18:34.367Z,4.52
2015-10-28T01:18:46.648Z,4.59
2015-10-28T01:18:58.945Z,4.58
2015-10-28T01:19:11.230Z,4.56
2015-10-28T01:19:23.526Z,4.55
2015-10-28T01:19:35.808Z,4.62
2015-10-28T01:19:48.120Z,4.66
2015-10-28T01:20:00.433Z,4.56
2015-10-28T01:20:12.748Z,4.68
2015-10-28T01:20:25.076Z,4.63
2015-10-28T01:20:37.436Z,4.62
2015-10-28T01:20:49.733Z,4.66
2015-10-28T01:21:02.045Z,4.67
2015-10-28T01:21:14.345Z,4.71
2015-10-28T01:21:26.657Z,4.66
2015-10-28T01:21:38.954Z,4.59
2015-10-28T01:21:51.251Z,4.53
2015-10-28T01:22:03.564Z,4.55
2015-10-28T01:22:15.878Z,4.59
2015-10-28T01:22:28.206Z,4.62
2015-10-28T01:22:40.534Z,4.62
2015-10-28T01:22:52.878Z,4.58
2015-10-28T01:23:16.412Z,4.59
2015-10-28T01:23:28.444Z,4.59
2015-10-28T01:23:40.741Z,4.59
2015-10-28T01:23:53.022Z,4.56
2015-10-28T01:24:05.334Z,4.49
2015-10-28T01:24:17.634Z,4.58
2015-10-28T01:24:29.947Z,4.59
2015-10-28T01:24:42.275Z,4.52
2015-10-28T01:24:54.603Z,4.53
2015-10-28T01:25:06.962Z,4.58
2015-10-28T01:25:19.262Z,4.63
2015-10-28T01:25:31.559Z,4.55
2015-10-28T01:25:43.856Z,4.58
2015-10-28T01:25:56.153Z,4.58
2015-10-28T01:26:08.450Z,4.6
2015-10-28T01:26:20.750Z,4.56
2015-10-28T01:26:33.078Z,4.56
2015-10-28T01:26:45.390Z,4.6
2015-10-28T01:26:57.750Z,4.6
2015-10-28T01:27:10.093Z,4.5
2015-10-28T01:27:22.382Z,4.44
2015-10-28T01:27:34.679Z,4.55
2015-10-28T01:27:46.976Z,4.49
2015-10-28T01:27:59.273Z,4.52
2015-10-28T01:28:11.570Z,4.5
2015-10-28T01:28:23.857Z,4.5
2015-10-28T01:28:36.169Z,4.45
2015-10-28T01:28:48.497Z,4.45
2015-10-28T01:29:00.825Z,4.49
2015-10-28T01:29:13.153Z,4.5
2015-10-28T01:29:25.456Z,4.49
2015-10-28T01:29:37.753Z,4.52
2015-10-28T01:29:50.065Z,4.53
2015-10-28T01:30:02.362Z,4.52
2015-10-28T01:30:14.659Z,4.45
2015-10-28T01:30:26.946Z,4.45
2015-10-28T01:30:39.274Z,4.45
2015-10-28T01:30:51.571Z,4.45
2015-10-28T01:31:03.930Z,4.45
2015-10-28T01:31:16.258Z,4.41
2015-10-28T01:31:28.576Z,4.4
2015-10-28T01:31:40.888Z,4.45
2015-10-28T01:31:53.201Z,4.45
2015-10-28T01:32:05.497Z,4.42
2015-10-28T01:32:17.794Z,4.49
2015-10-28T01:32:30.103Z,4.38
2015-10-28T01:32:42.400Z,4.44
2015-10-28T01:32:54.712Z,4.41
2015-10-28T01:33:07.025Z,4.4
2015-10-28T01:33:19.335Z,4.48
2015-10-28T01:33:31.679Z,4.4
2015-10-28T01:33:44.070Z,4.32
2015-10-28T01:33:56.382Z,4.42
2015-10-28T01:34:08.679Z,4.41
2015-10-28T01:34:20.974Z,4.37
2015-10-28T01:34:33.271Z,4.34
2015-10-28T01:34:45.583Z,4.4
2015-10-28T01:34:57.896Z,4.28
2015-10-28T01:35:10.083Z,4.34
2015-10-28T01:35:22.425Z,4.38
2015-10-28T01:35:34.566Z,4.35
2015-10-28T01:35:46.847Z,4.31
2015-10-28T01:35:59.144Z,4.35
2015-10-28T01:36:11.441Z,4.3
2015-10-28T01:36:23.735Z,4.35
2015-10-28T01:36:36.032Z,4.4
2015-10-28T01:36:48.345Z,4.38
2015-10-28T01:37:00.657Z,4.41
2015-10-28T01:37:12.985Z,4.42
2015-10-28T01:37:25.298Z,4.49
2015-10-28T01:37:37.610Z,4.55
2015-10-28T01:37:49.907Z,4.52
2015-10-28T01:38:02.204Z,4.58
2015-10-28T01:38:14.501Z,4.53
2015-10-28T01:38:26.799Z,4.55
2015-10-28T01:38:39.111Z,4.59
2015-10-28T01:38:51.424Z,4.53
2015-10-28T01:39:03.768Z,4.66
2015-10-28T01:39:16.096Z,4.66
2015-10-28T01:39:28.393Z,4.63
2015-10-28T01:39:40.690Z,4.68
2015-10-28T01:39:53.002Z,4.73
2015-10-28T01:40:05.315Z,4.68
2015-10-28T01:40:17.611Z,4.74
2015-10-28T01:40:29.925Z,4.73
2015-10-28T01:40:42.237Z,4.73
2015-10-28T01:40:54.550Z,4.82
2015-10-28T01:41:06.894Z,4.8
2015-10-28T01:41:19.238Z,4.75
2015-10-28T01:41:31.520Z,4.78
2015-10-28T01:41:43.817Z,4.87
2015-10-28T01:41:56.113Z,4.87
2015-10-28T01:42:08.426Z,4.86
2015-10-28T01:42:20.725Z,4.78
2015-10-28T01:42:33.037Z,4.8
2015-10-28T01:42:45.334Z,4.93
2015-10-28T01:42:57.647Z,4.92
2015-10-28T01:43:09.990Z,4.89
2015-10-28T01:43:22.351Z,4.82
2015-10-28T01:43:34.648Z,4.89
2015-10-28T01:43:46.960Z,4.8
2015-10-28T01:43:59.257Z,4.94
2015-10-28T01:44:11.554Z,4.9
2015-10-28T01:44:23.854Z,4.86
2015-10-28T01:44:36.151Z,4.89
2015-10-28T01:44:48.479Z,4.89
2015-10-28T01:45:00.791Z,4.82
2015-10-28T01:45:13.119Z,4.96
2015-10-28T01:45:25.450Z,4.89
2015-10-28T01:45:37.809Z,4.82
2015-10-28T01:45:50.106Z,4.93
2015-10-28T01:46:02.387Z,5
2015-10-28T01:46:14.684Z,4.99
2015-10-28T01:46:26.983Z,4.94
2015-10-28T01:46:39.280Z,5.02
2015-10-28T01:46:51.623Z,4.99
2015-10-28T01:47:03.936Z,4.97
2015-10-28T01:47:16.280Z,4.97
2015-10-28T01:47:28.610Z,4.94
2015-10-28T01:47:40.938Z,4.94
2015-10-28T01:47:53.282Z,4.94
2015-10-28T01:48:05.579Z,4.99
2015-10-28T01:48:17.891Z,4.84
2015-10-28T01:48:30.191Z,4.86
2015-10-28T01:48:42.488Z,5
2015-10-28T01:48:54.785Z,5
2015-10-28T01:49:07.097Z,4.94
2015-10-28T01:49:19.428Z,4.93
2015-10-28T01:49:31.772Z,4.87
2015-10-28T01:49:44.100Z,4.86
2015-10-28T01:49:56.428Z,4.92
2015-10-28T01:50:08.725Z,4.86
2015-10-28T01:50:21.040Z,4.87
2015-10-28T01:50:33.337Z,4.9
2015-10-28T01:50:45.633Z,4.86
2015-10-28T01:50:57.930Z,4.9
2015-10-28T01:51:10.227Z,4.9
2015-10-28T01:51:22.557Z,4.78
2015-10-28T01:51:34.870Z,4.82
2015-10-28T01:51:47.214Z,4.9
2015-10-28T01:51:59.542Z,4.94
2015-10-28T01:52:11.839Z,4.86
2015-10-28T01:52:24.138Z,4.9
2015-10-28T01:52:36.451Z,4.8
2015-10-28T01:52:48.732Z,4.77
2015-10-28T01:53:01.045Z,4.82
2015-10-28T01:53:13.357Z,4.82
2015-10-28T01:53:25.688Z,4.86
2015-10-28T01:53:38.001Z,4.8
2015-10-28T01:53:50.298Z,4.82
2015-10-28T01:54:02.595Z,4.78
2015-10-28T01:54:14.876Z,4.86
2015-10-28T01:54:27.160Z,4.8
2015-10-28T01:54:39.426Z,4.93
2015-10-28T01:54:51.723Z,4.8
2015-10-28T01:55:03.848Z,4.8
2015-10-28T01:55:16.176Z,4.8
2015-10-28T01:55:28.506Z,4.87
2015-10-28T01:55:40.834Z,4.77
2015-10-28T01:55:53.115Z,4.82
2015-10-28T01:56:05.412Z,4.78
2015-10-28T01:56:17.709Z,4.86
2015-10-28T01:56:30.024Z,4.84
2015-10-28T01:56:42.306Z,4.8
2015-10-28T01:56:54.618Z,4.75
2015-10-28T01:57:06.931Z,4.78
2015-10-28T01:57:19.277Z,4.84
2015-10-28T01:57:31.590Z,4.84
2015-10-28T01:57:43.887Z,4.77
2015-10-28T01:57:56.199Z,4.71
2015-10-28T01:58:08.496Z,4.8
2015-10-28T01:58:20.796Z,4.82
2015-10-28T01:58:33.093Z,4.75
2015-10-28T01:58:45.405Z,4.8
2015-10-28T01:58:57.702Z,4.75
2015-10-28T01:59:10.030Z,4.77
2015-10-28T01:59:22.361Z,4.86
2015-10-28T01:59:34.657Z,4.68
2015-10-28T01:59:46.814Z,4.68
2015-10-28T01:59:59.111Z,4.71
2015-10-28T02:00:11.407Z,4.68
2015-10-28T02:00:23.707Z,4.75
2015-10-28T02:00:36.020Z,4.74
2015-10-28T02:00:48.317Z,4.73
2015-10-28T02:01:00.660Z,4.7
2015-10-28T02:01:12.989Z,4.8
2015-10-28T02:01:25.304Z,4.74
2015-10-28T02:01:37.601Z,4.71
2015-10-28T02:01:49.898Z,4.8
2015-10-28T02:02:01.476Z,4.71
2015-10-28T02:02:13.773Z,4.75
2015-10-28T02:02:26.088Z,4.78
2015-10-28T02:02:38.401Z,4.87
2015-10-28T02:02:50.729Z,4.87
2015-10-28T02:03:03.073Z,4.73
2015-10-28T02:03:15.385Z,4.7
2015-10-28T02:03:27.684Z,4.77
2015-10-28T02:03:39.981Z,4.8
2015-10-28T02:03:52.293Z,4.78
2015-10-28T02:04:04.590Z,4.92
2015-10-28T02:04:16.903Z,4.78
2015-10-28T02:04:29.218Z,4.8
2015-10-28T02:04:41.515Z,4.9
2015-10-28T02:04:53.843Z,4.87
2015-10-28T02:05:06.187Z,4.9
2015-10-28T02:05:18.343Z,4.89
2015-10-28T02:05:30.643Z,4.89
2015-10-28T02:05:42.940Z,4.89
2015-10-28T02:05:55.253Z,4.87
2015-10-28T02:06:07.534Z,4.92
2015-10-28T02:06:19.849Z,4.92
2015-10-28T02:06:32.162Z,4.87
2015-10-28T02:06:44.474Z,4.96
2015-10-28T02:06:56.802Z,4.94
2015-10-28T02:07:09.131Z,4.94
2015-10-28T02:07:21.460Z,4.86
2015-10-28T02:07:33.757Z,4.93
2015-10-28T02:07:46.053Z,4.87
2015-10-28T02:07:58.350Z,5
2015-10-28T02:08:10.491Z,4.97
2015-10-28T02:08:22.792Z,4.86
2015-10-28T02:08:35.104Z,4.82
2015-10-28T02:08:47.417Z,4.89
2015-10-28T02:08:59.729Z,4.87
2015-10-28T02:09:12.073Z,4.8
2015-10-28T02:09:24.419Z,4.93
2015-10-28T02:09:36.716Z,4.99
2015-10-28T02:09:48.997Z,4.87
2015-10-28T02:10:01.294Z,4.8
2015-10-28T02:10:13.591Z,4.96
2015-10-28T02:10:25.922Z,4.87
2015-10-28T02:10:38.219Z,4.8
2015-10-28T02:10:50.531Z,4.99
2015-10-28T02:11:02.844Z,4.86
2015-10-28T02:11:15.187Z,4.89
2015-10-28T02:11:27.487Z,4.86
2015-10-28T02:11:39.784Z,4.89
2015-10-28T02:11:52.081Z,4.94
2015-10-28T02:12:04.394Z,4.86
2015-10-28T02:12:16.690Z,4.89
2015-10-28T02:12:28.989Z,4.92
2015-10-28T02:12:41.317Z,4.96
2015-10-28T02:12:53.630Z,4.89
2015-10-28T02:13:05.958Z,4.94
2015-10-28T02:13:18.177Z,4.89
2015-10-28T02:13:30.508Z,4.9
2015-10-28T02:13:42.836Z,4.93
2015-10-28T02:13:55.133Z,4.94
2015-10-28T02:14:07.430Z,4.89
2015-10-28T02:14:19.727Z,4.92
2015-10-28T02:14:32.027Z,4.96
2015-10-28T02:14:44.355Z,4.89
2015-10-28T02:14:56.636Z,4.87
2015-10-28T02:15:08.948Z,4.9
2015-10-28T02:15:21.264Z,4.94
2015-10-28T02:15:33.576Z,4.92
2015-10-28T02:15:45.905Z,4.8
2015-10-28T02:15:58.201Z,4.8
2015-10-28T02:16:10.483Z,4.78
2015-10-28T02:16:22.783Z,4.84
2015-10-28T02:16:35.079Z,4.8
2015-10-28T02:16:47.376Z,4.82
2015-10-28T02:16:59.673Z,4.78
2015-10-28T02:17:11.970Z,4.77
2015-10-28T02:17:24.285Z,4.75
2015-10-28T02:17:36.613Z,4.84
2015-10-28T02:17:48.956Z,4.75
2015-10-28T02:18:01.285Z,4.73
2015-10-28T02:18:13.581Z,4.78
2015-10-28T02:18:25.880Z,4.74
2015-10-28T02:18:38.177Z,4.71
2015-10-28T02:18:50.474Z,4.73
2015-10-28T02:19:02.771Z,4.7
2015-10-28T02:19:15.068Z,4.73
2015-10-28T02:19:27.383Z,4.75
2015-10-28T02:19:39.680Z,4.74
2015-10-28T02:19:52.008Z,4.74
2015-10-28T02:20:04.336Z,4.71
2015-10-28T02:20:16.665Z,4.68
2015-10-28T02:20:28.964Z,4.66
2015-10-28T02:20:41.246Z,4.63
2015-10-28T02:20:53.543Z,4.63
2015-10-28T02:21:05.855Z,4.68
2015-10-28T02:21:18.152Z,4.68
2015-10-28T02:21:30.467Z,4.67
2015-10-28T02:21:42.780Z,4.67
2015-10-28T02:21:55.124Z,4.66
2015-10-28T02:22:07.436Z,4.6
2015-10-28T02:22:19.733Z,4.7
2015-10-28T02:22:32.033Z,4.68
2015-10-28T02:22:44.392Z,4.66
2015-10-28T02:22:56.705Z,4.62
2015-10-28T02:23:08.986Z,4.62
2015-10-28T02:23:21.283Z,4.63
2015-10-28T02:23:33.598Z,4.67
2015-10-28T02:23:45.911Z,4.67
2015-10-28T02:23:58.239Z,4.6
2015-10-28T02:24:10.567Z,4.67
2015-10-28T02:24:22.864Z,4.59
2015-10-28T02:24:35.163Z,4.67
2015-10-28T02:24:47.460Z,4.59
2015-10-28T02:24:59.757Z,4.74
2015-10-28T02:25:12.054Z,4.63
2015-10-28T02:25:24.350Z,4.55
2015-10-28T02:25:36.650Z,4.59
2015-10-28T02:25:48.963Z,4.67
2015-10-28T02:26:01.275Z,4.67
2015-10-28T02:26:13.603Z,4.68
2015-10-28T02:26:25.932Z,4.67
2015-10-28T02:26:38.278Z,4.66
2015-10-28T02:26:50.575Z,4.62
2015-10-28T02:27:02.872Z,4.66
2015-10-28T02:27:15.169Z,4.66
2015-10-28T02:27:27.466Z,4.63
2015-10-28T02:27:39.781Z,4.66
2015-10-28T02:27:52.078Z,4.62
2015-10-28T02:28:04.391Z,4.66
2015-10-28T02:28:16.688Z,4.68
2015-10-28T02:28:29.018Z,4.67
2015-10-28T02:28:41.346Z,4.67
2015-10-28T02:28:53.658Z,4.68
2015-10-28T02:29:05.940Z,4.74
2015-10-28T02:29:18.221Z,4.71
2015-10-28T02:29:30.505Z,4.73
2015-10-28T02:29:42.802Z,4.73
2015-10-28T02:29:55.083Z,4.67
2015-10-28T02:30:07.380Z,4.68
2015-10-28T02:30:19.708Z,4.66
2015-10-28T02:30:32.023Z,4.67
2015-10-28T02:30:44.335Z,4.66
2015-10-28T02:30:56.663Z,4.68
2015-10-28T02:31:08.960Z,4.66
2015-10-28T02:31:21.273Z,4.66
2015-10-28T02:31:33.572Z,4.67
2015-10-28T02:31:45.868Z,4.56
2015-10-28T02:31:58.181Z,4.67
2015-10-28T02:32:10.493Z,4.67
2015-10-28T02:32:22.822Z,4.63
2015-10-28T02:32:35.169Z,4.7
2015-10-28T02:32:47.497Z,4.7
2015-10-28T02:32:59.794Z,4.73
2015-10-28T02:33:12.091Z,4.74
2015-10-28T02:33:24.388Z,4.74
2015-10-28T02:33:36.687Z,4.66
2015-10-28T02:33:48.984Z,4.63
2015-10-28T02:34:01.281Z,4.74
2015-10-28T02:34:13.593Z,4.62
2015-10-28T02:34:25.906Z,4.66
2015-10-28T02:34:38.237Z,4.66
2015-10-28T02:34:50.565Z,4.67
2015-10-28T02:35:02.893Z,4.71
2015-10-28T02:35:15.190Z,4.67
2015-10-28T02:35:27.487Z,4.55
2015-10-28T02:35:39.787Z,4.59
2015-10-28T02:35:52.084Z,4.59
2015-10-28T02:36:04.380Z,4.58
2015-10-28T02:36:16.677Z,4.59
2015-10-28T02:36:28.990Z,4.59
2015-10-28T02:36:41.305Z,4.52
2015-10-28T02:36:53.618Z,4.56
2015-10-28T02:37:05.962Z,4.48
2015-10-28T02:37:18.274Z,4.56
2015-10-28T02:37:30.571Z,4.41
2015-10-28T02:37:42.715Z,4.45
2015-10-28T02:37:55.011Z,4.45
2015-10-28T02:38:07.308Z,4.48
2015-10-28T02:38:19.605Z,4.44
2015-10-28T02:38:31.918Z,4.4
2015-10-28T02:38:44.232Z,4.4
2015-10-28T02:38:56.529Z,4.42
2015-10-28T02:39:08.842Z,4.42
2015-10-28T02:39:21.185Z,4.44
2015-10-28T02:39:33.545Z,4.41
2015-10-28T02:39:45.845Z,4.42
2015-10-28T02:39:58.157Z,4.38
2015-10-28T02:40:10.454Z,4.42
2015-10-28T02:40:22.751Z,4.41
2015-10-28T02:40:35.063Z,4.38
2015-10-28T02:40:47.362Z,4.31
2015-10-28T02:40:59.659Z,4.38
2015-10-28T02:41:11.972Z,4.37
2015-10-28T02:41:24.300Z,4.34
2015-10-28T02:41:36.643Z,4.34
2015-10-28T02:41:48.959Z,4.32
2015-10-28T02:42:01.256Z,4.45
2015-10-28T02:42:13.537Z,4.34
2015-10-28T02:42:25.850Z,4.38
2015-10-28T02:42:38.146Z,4.37
2015-10-28T02:42:50.446Z,4.37
2015-10-28T02:43:02.759Z,4.38
2015-10-28T02:43:15.087Z,4.5
2015-10-28T02:43:27.415Z,4.44
2015-10-28T02:43:39.743Z,4.41
2015-10-28T02:43:52.043Z,4.5
2015-10-28T02:44:04.340Z,4.55
2015-10-28T02:44:16.637Z,4.5
2015-10-28T02:44:28.949Z,4.56
2015-10-28T02:44:41.246Z,4.62
2015-10-28T02:44:53.546Z,4.52
2015-10-28T02:45:05.843Z,4.59
2015-10-28T02:45:18.155Z,4.58